sensor_id;sensor_type;location;lat;lon;timestamp;pressure;altitude;pressure_sealevel;temperature;humidity
56514;BME280;62152;52.078;8.414;2022-08-01T00:01:32;100027.09;;;23.07;54.73
56514;BME280;62152;52.078;8.414;2022-08-01T00:03:17;100025.53;;;23.06;54.74
56514;BME280;62152;52.078;8.414;2022-08-01T00:05:03;100018.78;;;23.07;54.89
56514;BME280;62152;52.078;8.414;2022-08-01T00:06:49;100024.31;;;23.07;54.87
56514;BME280;62152;52.078;8.414;2022-08-01T00:08:34;100024.31;;;23.07;54.73
56514;BME280;62152;52.078;8.414;2022-08-01T00:10:22;100036.59;;;23.06;54.99
56514;BME280;62152;52.078;8.414;2022-08-01T00:12:07;100032.22;;;23.05;54.83
56514;BME280;62152;52.078;8.414;2022-08-01T00:13:52;100027.47;;;23.06;54.95
56514;BME280;62152;52.078;8.414;2022-08-01T00:15:38;100036.59;;;23.06;54.76
56514;BME280;62152;52.078;8.414;2022-08-01T00:17:23;100038.53;;;23.06;54.76
56514;BME280;62152;52.078;8.414;2022-08-01T00:19:08;100028.66;;;23.05;54.61
56514;BME280;62152;52.078;8.414;2022-08-01T00:20:53;100032.22;;;23.05;54.83
56514;BME280;62152;52.078;8.414;2022-08-01T00:22:38;100029.44;;;23.05;54.78
56514;BME280;62152;52.078;8.414;2022-08-01T00:24:23;100029.44;;;23.05;54.64
56514;BME280;62152;52.078;8.414;2022-08-01T00:26:12;100023.13;;;23.05;54.93
56514;BME280;62152;52.078;8.414;2022-08-01T00:27:57;100040.94;;;23.04;54.71
56514;BME280;62152;52.078;8.414;2022-08-01T00:29:42;100032.22;;;23.05;54.77
56514;BME280;62152;52.078;8.414;2022-08-01T00:31:27;100038.53;;;23.06;54.66
56514;BME280;62152;52.078;8.414;2022-08-01T00:33:13;100037.75;;;23.05;54.73
56514;BME280;62152;52.078;8.414;2022-08-01T00:34:58;100040.50;;;23.05;54.42
56514;BME280;62152;52.078;8.414;2022-08-01T00:36:43;100036.97;;;23.05;54.66
56514;BME280;62152;52.078;8.414;2022-08-01T00:38:28;100036.97;;;23.05;54.64
56514;BME280;62152;52.078;8.414;2022-08-01T00:40:13;100035.41;;;23.04;54.56
56514;BME280;62152;52.078;8.414;2022-08-01T00:42:05;100040.94;;;23.04;54.77
56514;BME280;62152;52.078;8.414;2022-08-01T00:43:53;100041.72;;;23.04;54.78
56514;BME280;62152;52.078;8.414;2022-08-01T00:45:39;100043.69;;;23.04;54.48
56514;BME280;62152;52.078;8.414;2022-08-01T00:47:24;100042.50;;;23.05;54.59
56514;BME280;62152;52.078;8.414;2022-08-01T00:49:09;100043.69;;;23.04;54.45
56514;BME280;62152;52.078;8.414;2022-08-01T00:50:54;100038.94;;;23.04;54.35
56514;BME280;62152;52.078;8.414;2022-08-01T00:52:41;100043.28;;;23.05;54.56
56514;BME280;62152;52.078;8.414;2022-08-01T00:54:28;100036.97;;;23.05;54.27
56514;BME280;62152;52.078;8.414;2022-08-01T00:56:13;100041.72;;;23.04;54.61
56514;BME280;62152;52.078;8.414;2022-08-01T00:58:01;100043.69;;;23.04;54.64
56514;BME280;62152;52.078;8.414;2022-08-01T00:59:47;100042.91;;;23.03;54.64
56514;BME280;62152;52.078;8.414;2022-08-01T01:01:33;100046.47;;;23.04;54.53
56514;BME280;62152;52.078;8.414;2022-08-01T01:03:18;100049.63;;;23.02;54.69
56514;BME280;62152;52.078;8.414;2022-08-01T01:05:04;100044.09;;;23.02;54.75
56514;BME280;62152;52.078;8.414;2022-08-01T01:06:59;100044.09;;;23.02;54.61
56514;BME280;62152;52.078;8.414;2022-08-01T01:09:24;100044.09;;;23.02;54.58
56514;BME280;62152;52.078;8.414;2022-08-01T01:11:26;100047.66;;;23.03;54.33
56514;BME280;62152;52.078;8.414;2022-08-01T01:13:25;100042.13;;;23.03;54.70
56514;BME280;62152;52.078;8.414;2022-08-01T01:15:25;100048.06;;;23.01;54.44
56514;BME280;62152;52.078;8.414;2022-08-01T01:17:27;100044.50;;;23.01;54.50
56514;BME280;62152;52.078;8.414;2022-08-01T01:19:23;100046.50;;;23.00;54.55
56514;BME280;62152;52.078;8.414;2022-08-01T01:23:57;100055.16;;;23.02;54.14
56514;BME280;62152;52.078;8.414;2022-08-01T01:26:17;100050.41;;;23.03;54.25
56514;BME280;62152;52.078;8.414;2022-08-01T01:28:17;100055.94;;;23.03;54.14
56514;BME280;62152;52.078;8.414;2022-08-01T01:30:12;100052.41;;;23.02;54.11
56514;BME280;62152;52.078;8.414;2022-08-01T01:32:03;100044.88;;;23.03;54.19
56514;BME280;62152;52.078;8.414;2022-08-01T01:33:53;100045.28;;;23.01;54.44
56514;BME280;62152;52.078;8.414;2022-08-01T01:35:46;100047.28;;;23.01;54.49
56514;BME280;62152;52.078;8.414;2022-08-01T01:37:38;100050.81;;;23.01;54.52
56514;BME280;62152;52.078;8.414;2022-08-01T01:39:29;100050.03;;;23.01;54.21
56514;BME280;62152;52.078;8.414;2022-08-01T01:41:18;100052.41;;;23.02;54.13
56514;BME280;62152;52.078;8.414;2022-08-01T01:43:10;100048.84;;;23.02;54.05
56514;BME280;62152;52.078;8.414;2022-08-01T01:44:58;100048.06;;;23.01;54.40
56514;BME280;62152;52.078;8.414;2022-08-01T01:46:51;100057.16;;;23.02;54.22
56514;BME280;62152;52.078;8.414;2022-08-01T01:48:39;100053.59;;;23.01;54.04
56514;BME280;62152;52.078;8.414;2022-08-01T01:50:28;100057.56;;;23.00;54.29
56514;BME280;62152;52.078;8.414;2022-08-01T01:52:17;100053.59;;;23.01;54.01
56514;BME280;62152;52.078;8.414;2022-08-01T01:54:05;100057.56;;;23.00;54.14
56514;BME280;62152;52.078;8.414;2022-08-01T01:55:55;100050.44;;;22.99;54.12
56514;BME280;62152;52.078;8.414;2022-08-01T01:57:44;100054.00;;;23.00;54.26
56514;BME280;62152;52.078;8.414;2022-08-01T01:59:34;100052.81;;;23.01;54.11
56514;BME280;62152;52.078;8.414;2022-08-01T02:01:26;100060.31;;;23.00;53.91
56514;BME280;62152;52.078;8.414;2022-08-01T02:03:20;100057.56;;;23.00;54.04
56514;BME280;62152;52.078;8.414;2022-08-01T02:05:11;100063.09;;;23.00;54.07
56514;BME280;62152;52.078;8.414;2022-08-01T02:07:00;100052.03;;;23.00;54.05
56514;BME280;62152;52.078;8.414;2022-08-01T02:08:47;100057.56;;;23.00;54.12
56514;BME280;62152;52.078;8.414;2022-08-01T02:10:35;100054.00;;;23.00;54.07
56514;BME280;62152;52.078;8.414;2022-08-01T02:12:22;100057.94;;;22.99;53.95
56514;BME280;62152;52.078;8.414;2022-08-01T02:14:10;100057.56;;;23.00;54.11
56514;BME280;62152;52.078;8.414;2022-08-01T02:15:58;100056.78;;;23.00;54.07
56514;BME280;62152;52.078;8.414;2022-08-01T02:17:47;100058.34;;;23.01;53.91
56514;BME280;62152;52.078;8.414;2022-08-01T02:19:39;100051.25;;;23.00;53.83
56514;BME280;62152;52.078;8.414;2022-08-01T02:21:29;100053.22;;;22.99;54.20
56514;BME280;62152;52.078;8.414;2022-08-01T02:23:18;100056.78;;;23.00;53.93
56514;BME280;62152;52.078;8.414;2022-08-01T02:25:11;100062.31;;;23.00;54.11
56514;BME280;62152;52.078;8.414;2022-08-01T02:27:08;100060.31;;;23.00;53.82
56514;BME280;62152;52.078;8.414;2022-08-01T02:29:02;100054.78;;;23.00;53.79
56514;BME280;62152;52.078;8.414;2022-08-01T02:30:50;100055.97;;;22.99;54.08
56514;BME280;62152;52.078;8.414;2022-08-01T02:32:40;100053.22;;;22.99;54.06
56514;BME280;62152;52.078;8.414;2022-08-01T02:34:29;100054.38;;;22.98;53.81
56514;BME280;62152;52.078;8.414;2022-08-01T02:36:24;100049.25;;;22.97;54.17
56514;BME280;62152;52.078;8.414;2022-08-01T02:38:14;100054.38;;;22.98;53.87
56514;BME280;62152;52.078;8.414;2022-08-01T02:40:00;100052.81;;;22.97;53.96
56514;BME280;62152;52.078;8.414;2022-08-01T02:41:48;100052.81;;;22.97;54.03
56514;BME280;62152;52.078;8.414;2022-08-01T02:43:42;100054.38;;;22.98;53.91
56514;BME280;62152;52.078;8.414;2022-08-01T02:45:35;100054.38;;;22.98;53.89
56514;BME280;62152;52.078;8.414;2022-08-01T02:47:25;100061.09;;;22.97;53.96
56514;BME280;62152;52.078;8.414;2022-08-01T02:49:15;100052.41;;;22.99;53.95
56514;BME280;62152;52.078;8.414;2022-08-01T02:51:06;100059.91;;;22.98;53.83
56514;BME280;62152;52.078;8.414;2022-08-01T02:52:58;100064.28;;;22.99;53.80
56514;BME280;62152;52.078;8.414;2022-08-01T02:54:47;100066.22;;;22.99;53.61
56514;BME280;62152;52.078;8.414;2022-08-01T02:56:36;100067.03;;;22.99;53.76
56514;BME280;62152;52.078;8.414;2022-08-01T02:58:23;100064.66;;;22.98;53.80
56514;BME280;62152;52.078;8.414;2022-08-01T03:00:10;100063.09;;;22.97;53.89
56514;BME280;62152;52.078;8.414;2022-08-01T03:01:57;100066.66;;;22.97;54.07
56514;BME280;62152;52.078;8.414;2022-08-01T03:03:46;100070.59;;;22.96;53.90
56514;BME280;62152;52.078;8.414;2022-08-01T03:05:35;100067.44;;;22.98;54.02
56514;BME280;62152;52.078;8.414;2022-08-01T03:07:22;100062.31;;;22.96;53.81
56514;BME280;62152;52.078;8.414;2022-08-01T03:09:13;100072.19;;;22.97;53.99
56514;BME280;62152;52.078;8.414;2022-08-01T03:11:01;100062.31;;;22.96;53.74
56514;BME280;62152;52.078;8.414;2022-08-01T03:12:50;100066.66;;;22.97;53.60
56514;BME280;62152;52.078;8.414;2022-08-01T03:14:39;100075.72;;;22.98;53.75
56514;BME280;62152;52.078;8.414;2022-08-01T03:16:28;100069.41;;;22.97;53.66
56514;BME280;62152;52.078;8.414;2022-08-01T03:18:17;100065.84;;;22.97;53.97
56514;BME280;62152;52.078;8.414;2022-08-01T03:20:05;100072.59;;;22.96;53.74
56514;BME280;62152;52.078;8.414;2022-08-01T03:21:55;100078.91;;;22.96;53.82
56514;BME280;62152;52.078;8.414;2022-08-01T03:23:45;100073.38;;;22.96;53.79
56514;BME280;62152;52.078;8.414;2022-08-01T03:25:44;100064.66;;;22.98;53.71
56514;BME280;62152;52.078;8.414;2022-08-01T03:27:31;100066.66;;;22.97;53.89
56514;BME280;62152;52.078;8.414;2022-08-01T03:29:24;100080.06;;;22.99;53.19
56514;BME280;62152;52.078;8.414;2022-08-01T03:31:14;100081.25;;;22.98;53.94
56514;BME280;62152;52.078;8.414;2022-08-01T03:33:00;100078.94;;;22.92;55.31
56514;BME280;62152;52.078;8.414;2022-08-01T03:34:45;100085.66;;;22.88;55.13
56514;BME280;62152;52.078;8.414;2022-08-01T03:36:33;100086.41;;;22.85;55.17
56514;BME280;62152;52.078;8.414;2022-08-01T03:38:31;100091.97;;;22.78;55.42
56514;BME280;62152;52.078;8.414;2022-08-01T03:40:25;100086.06;;;22.76;55.77
56514;BME280;62152;52.078;8.414;2022-08-01T03:42:22;100087.25;;;22.71;55.80
56514;BME280;62152;52.078;8.414;2022-08-01T03:44:15;100087.66;;;22.70;56.35
56514;BME280;62152;52.078;8.414;2022-08-01T03:46:07;100088.88;;;22.65;56.85
56514;BME280;62152;52.078;8.414;2022-08-01T03:48:01;100090.03;;;22.67;56.70
56514;BME280;62152;52.078;8.414;2022-08-01T03:49:52;100077.81;;;22.65;57.04
56514;BME280;62152;52.078;8.414;2022-08-01T03:51:40;100088.47;;;22.66;56.76
56514;BME280;62152;52.078;8.414;2022-08-01T03:53:30;100089.25;;;22.63;57.13
56514;BME280;62152;52.078;8.414;2022-08-01T03:55:20;100091.25;;;22.59;57.21
56514;BME280;62152;52.078;8.414;2022-08-01T03:57:09;100095.59;;;22.60;57.46
56514;BME280;62152;52.078;8.414;2022-08-01T03:58:58;100089.25;;;22.63;57.59
56514;BME280;62152;52.078;8.414;2022-08-01T04:00:45;100088.88;;;22.61;57.89
56514;BME280;62152;52.078;8.414;2022-08-01T04:02:32;100096.00;;;22.55;58.30
56514;BME280;62152;52.078;8.414;2022-08-01T04:04:18;100086.53;;;22.49;58.51
56514;BME280;62152;52.078;8.414;2022-08-01T04:06:04;100088.53;;;22.42;58.26
56514;BME280;62152;52.078;8.414;2022-08-01T04:07:52;100096.44;;;22.36;58.88
56514;BME280;62152;52.078;8.414;2022-08-01T04:09:41;100083.44;;;22.22;59.78
56514;BME280;62152;52.078;8.414;2022-08-01T04:11:27;100090.16;;;22.25;59.58
56514;BME280;62152;52.078;8.414;2022-08-01T04:13:13;100091.34;;;22.24;59.51
56514;BME280;62152;52.078;8.414;2022-08-01T04:15:00;100096.84;;;22.31;59.47
56514;BME280;62152;52.078;8.414;2022-08-01T04:16:46;100091.69;;;22.36;58.96
56514;BME280;62152;52.078;8.414;2022-08-01T04:18:31;100097.59;;;22.42;58.80
56514;BME280;62152;52.078;8.414;2022-08-01T04:20:17;100090.91;;;22.47;58.35
56514;BME280;62152;52.078;8.414;2022-08-01T04:22:02;100092.03;;;22.56;58.47
56514;BME280;62152;52.078;8.414;2022-08-01T04:23:51;100097.53;;;22.63;58.15
56514;BME280;62152;52.078;8.414;2022-08-01T04:25:40;100099.13;;;22.68;57.96
56514;BME280;62152;52.078;8.414;2022-08-01T04:27:31;100102.69;;;22.72;57.44
56514;BME280;62152;52.078;8.414;2022-08-01T04:29:23;100098.72;;;22.73;57.25
56514;BME280;62152;52.078;8.414;2022-08-01T04:31:16;100104.22;;;22.77;57.25
56514;BME280;62152;52.078;8.414;2022-08-01T04:33:05;100110.94;;;22.79;57.07
56514;BME280;62152;52.078;8.414;2022-08-01T04:34:55;100105.41;;;22.79;56.99
56514;BME280;62152;52.078;8.414;2022-08-01T04:36:44;100112.13;;;22.82;57.04
56514;BME280;62152;52.078;8.414;2022-08-01T04:38:34;100116.06;;;22.81;56.76
56514;BME280;62152;52.078;8.414;2022-08-01T04:40:21;100121.97;;;22.83;56.93
56514;BME280;62152;52.078;8.414;2022-08-01T04:42:08;100118.44;;;22.82;56.85
56514;BME280;62152;52.078;8.414;2022-08-01T04:43:57;100116.44;;;22.83;56.75
56514;BME280;62152;52.078;8.414;2022-08-01T04:45:46;100116.44;;;22.83;56.75
56514;BME280;62152;52.078;8.414;2022-08-01T04:47:36;100121.97;;;22.83;56.48
56514;BME280;62152;52.078;8.414;2022-08-01T04:49:21;100130.28;;;22.83;57.07
56514;BME280;62152;52.078;8.414;2022-08-01T04:51:11;100131.84;;;22.84;56.43
56514;BME280;62152;52.078;8.414;2022-08-01T04:52:57;100135.41;;;22.84;56.22
56514;BME280;62152;52.078;8.414;2022-08-01T04:54:44;100126.31;;;22.84;56.29
56514;BME280;62152;52.078;8.414;2022-08-01T04:56:30;100133.41;;;22.85;56.31
56514;BME280;62152;52.078;8.414;2022-08-01T04:58:16;100126.75;;;22.86;56.27
56514;BME280;62152;52.078;8.414;2022-08-01T05:00:02;100130.31;;;22.86;56.51
56514;BME280;62152;52.078;8.414;2022-08-01T05:01:49;100135.06;;;22.86;56.01
56514;BME280;62152;52.078;8.414;2022-08-01T05:03:37;100130.31;;;22.86;56.17
56514;BME280;62152;52.078;8.414;2022-08-01T05:05:22;100129.53;;;22.86;56.22
56514;BME280;62152;52.078;8.414;2022-08-01T05:07:11;100136.63;;;22.87;55.98
56514;BME280;62152;52.078;8.414;2022-08-01T05:08:57;100135.84;;;22.86;56.02
56514;BME280;62152;52.078;8.414;2022-08-01T05:10:42;100134.66;;;22.87;56.13
56514;BME280;62152;52.078;8.414;2022-08-01T05:12:27;100139.00;;;22.88;55.85
56514;BME280;62152;52.078;8.414;2022-08-01T05:14:13;100129.91;;;22.88;56.04
56514;BME280;62152;52.078;8.414;2022-08-01T05:15:59;100134.25;;;22.89;55.95
56514;BME280;62152;52.078;8.414;2022-08-01T05:17:45;100135.44;;;22.88;55.94
56514;BME280;62152;52.078;8.414;2022-08-01T05:19:33;100132.66;;;22.88;55.96
56514;BME280;62152;52.078;8.414;2022-08-01T05:21:19;100135.44;;;22.88;55.97
56514;BME280;62152;52.078;8.414;2022-08-01T05:23:04;100139.78;;;22.89;55.87
56514;BME280;62152;52.078;8.414;2022-08-01T05:24:50;100130.28;;;22.90;55.69
56514;BME280;62152;52.078;8.414;2022-08-01T05:26:35;100140.16;;;22.91;56.07
56514;BME280;62152;52.078;8.414;2022-08-01T05:28:20;100131.84;;;22.91;55.69
56514;BME280;62152;52.078;8.414;2022-08-01T05:30:07;100144.91;;;22.90;55.94
56514;BME280;62152;52.078;8.414;2022-08-01T05:31:54;100142.91;;;22.91;55.68
56514;BME280;62152;52.078;8.414;2022-08-01T05:33:39;100138.56;;;22.90;55.63
56514;BME280;62152;52.078;8.414;2022-08-01T05:35:27;100144.91;;;22.90;55.67
56514;BME280;62152;52.078;8.414;2022-08-01T05:37:12;100146.09;;;22.89;55.95
56514;BME280;62152;52.078;8.414;2022-08-01T05:38:57;100146.88;;;22.90;55.81
56514;BME280;62152;52.078;8.414;2022-08-01T05:40:42;100155.19;;;22.90;55.73
56514;BME280;62152;52.078;8.414;2022-08-01T05:42:27;100153.19;;;22.90;55.79
56514;BME280;62152;52.078;8.414;2022-08-01T05:44:12;100155.97;;;22.90;55.52
56514;BME280;62152;52.078;8.414;2022-08-01T05:45:57;100153.19;;;22.90;55.54
56514;BME280;62152;52.078;8.414;2022-08-01T05:47:43;100158.72;;;22.90;55.69
56514;BME280;62152;52.078;8.414;2022-08-01T05:49:28;100154.38;;;22.89;55.67
56514;BME280;62152;52.078;8.414;2022-08-01T05:51:16;100160.31;;;22.88;55.69
56514;BME280;62152;52.078;8.414;2022-08-01T05:53:01;100153.97;;;22.91;55.84
56514;BME280;62152;52.078;8.414;2022-08-01T05:54:46;100154.75;;;22.91;55.63
56514;BME280;62152;52.078;8.414;2022-08-01T05:56:31;100159.50;;;22.91;55.57
56514;BME280;62152;52.078;8.414;2022-08-01T05:58:16;100156.75;;;22.91;55.79
56514;BME280;62152;52.078;8.414;2022-08-01T06:00:01;100165.03;;;22.91;55.42
56514;BME280;62152;52.078;8.414;2022-08-01T06:01:53;100160.28;;;22.91;55.32
56514;BME280;62152;52.078;8.414;2022-08-01T06:03:38;100169.38;;;22.92;55.30
56514;BME280;62152;52.078;8.414;2022-08-01T06:05:24;100157.53;;;22.91;55.46
56514;BME280;62152;52.078;8.414;2022-08-01T06:07:12;100163.47;;;22.93;55.63
56514;BME280;62152;52.078;8.414;2022-08-01T06:08:57;100167.81;;;22.95;55.35
56514;BME280;62152;52.078;8.414;2022-08-01T06:10:42;100167.03;;;22.94;55.10
56514;BME280;62152;52.078;8.414;2022-08-01T06:12:27;100170.16;;;22.96;55.33
56514;BME280;62152;52.078;8.414;2022-08-01T06:14:12;100171.38;;;22.95;55.07
56514;BME280;62152;52.078;8.414;2022-08-01T06:15:57;100177.69;;;22.96;55.48
56514;BME280;62152;52.078;8.414;2022-08-01T06:17:42;100174.91;;;22.96;55.26
56514;BME280;62152;52.078;8.414;2022-08-01T06:19:27;100178.47;;;22.96;55.38
56514;BME280;62152;52.078;8.414;2022-08-01T06:21:12;100172.94;;;22.96;55.25
56514;BME280;62152;52.078;8.414;2022-08-01T06:23:00;100178.47;;;22.96;55.25
56514;BME280;62152;52.078;8.414;2022-08-01T06:24:45;100183.22;;;22.96;55.32
56514;BME280;62152;52.078;8.414;2022-08-01T06:26:30;100181.63;;;22.95;55.24
56514;BME280;62152;52.078;8.414;2022-08-01T06:28:17;100178.09;;;22.94;55.66
56514;BME280;62152;52.078;8.414;2022-08-01T06:30:03;100190.72;;;22.95;55.29
56514;BME280;62152;52.078;8.414;2022-08-01T06:31:49;100178.88;;;22.95;55.30
56514;BME280;62152;52.078;8.414;2022-08-01T06:33:34;100189.56;;;22.92;55.45
56514;BME280;62152;52.078;8.414;2022-08-01T06:35:19;100191.13;;;22.93;55.49
56514;BME280;62152;52.078;8.414;2022-08-01T06:37:04;100194.69;;;22.94;55.14
56514;BME280;62152;52.078;8.414;2022-08-01T06:38:52;100186.78;;;22.92;55.38
56514;BME280;62152;52.078;8.414;2022-08-01T06:40:37;100187.94;;;22.91;55.09
56514;BME280;62152;52.078;8.414;2022-08-01T06:42:22;100192.69;;;22.91;55.46
56514;BME280;62152;52.078;8.414;2022-08-01T06:44:07;100193.91;;;22.93;55.40
56514;BME280;62152;52.078;8.414;2022-08-01T06:45:52;100195.09;;;22.92;55.21
56514;BME280;62152;52.078;8.414;2022-08-01T06:47:38;100193.50;;;22.95;55.40
56514;BME280;62152;52.078;8.414;2022-08-01T06:49:24;100191.13;;;22.93;55.03
56514;BME280;62152;52.078;8.414;2022-08-01T06:51:09;100202.19;;;22.93;55.36
56514;BME280;62152;52.078;8.414;2022-08-01T06:52:57;100199.00;;;22.91;55.05
56514;BME280;62152;52.078;8.414;2022-08-01T06:54:44;100200.63;;;22.92;55.44
56514;BME280;62152;52.078;8.414;2022-08-01T06:56:30;100218.78;;;22.93;55.16
56514;BME280;62152;52.078;8.414;2022-08-01T06:58:16;100205.75;;;22.94;55.17
56514;BME280;62152;52.078;8.414;2022-08-01T07:00:05;100201.78;;;22.95;55.12
56514;BME280;62152;52.078;8.414;2022-08-01T07:01:53;100207.31;;;22.95;55.07
56514;BME280;62152;52.078;8.414;2022-08-01T07:03:38;100215.63;;;22.95;55.15
56514;BME280;62152;52.078;8.414;2022-08-01T07:05:24;100203.75;;;22.95;55.04
56514;BME280;62152;52.078;8.414;2022-08-01T07:07:12;100211.66;;;22.96;55.18
56514;BME280;62152;52.078;8.414;2022-08-01T07:08:57;100207.31;;;22.95;55.06
56514;BME280;62152;52.078;8.414;2022-08-01T07:10:46;100208.91;;;22.96;54.87
56514;BME280;62152;52.078;8.414;2022-08-01T07:12:31;100210.88;;;22.96;54.95
56514;BME280;62152;52.078;8.414;2022-08-01T07:14:18;100208.91;;;22.96;54.92
56514;BME280;62152;52.078;8.414;2022-08-01T07:16:04;100213.22;;;22.97;55.23
56514;BME280;62152;52.078;8.414;2022-08-01T07:17:49;100211.66;;;22.96;55.21
56514;BME280;62152;52.078;8.414;2022-08-01T07:19:34;100221.16;;;22.95;55.00
56514;BME280;62152;52.078;8.414;2022-08-01T07:21:19;100217.97;;;22.97;55.18
56514;BME280;62152;52.078;8.414;2022-08-01T07:23:04;100221.13;;;22.99;55.03
56514;BME280;62152;52.078;8.414;2022-08-01T07:24:50;100210.06;;;22.99;54.88
56514;BME280;62152;52.078;8.414;2022-08-01T07:26:37;100217.97;;;23.00;55.21
56514;BME280;62152;52.078;8.414;2022-08-01T07:28:23;100206.91;;;23.00;54.96
56514;BME280;62152;52.078;8.414;2022-08-01T07:30:09;100210.88;;;22.99;55.14
56514;BME280;62152;52.078;8.414;2022-08-01T07:31:56;100209.69;;;23.00;54.98
56514;BME280;62152;52.078;8.414;2022-08-01T07:33:42;100207.31;;;23.02;55.05
56514;BME280;62152;52.078;8.414;2022-08-01T07:35:27;100219.56;;;23.01;55.05
56514;BME280;62152;52.078;8.414;2022-08-01T07:37:12;100221.13;;;23.02;55.13
56514;BME280;62152;52.078;8.414;2022-08-01T07:38:57;100223.50;;;23.04;55.11
56514;BME280;62152;52.078;8.414;2022-08-01T07:40:42;100227.84;;;23.05;54.95
56514;BME280;62152;52.078;8.414;2022-08-01T07:42:31;100222.31;;;23.05;54.89
56514;BME280;62152;52.078;8.414;2022-08-01T07:44:16;100222.31;;;23.05;54.78
56514;BME280;62152;52.078;8.414;2022-08-01T07:46:01;100221.94;;;23.06;54.73
56514;BME280;62152;52.078;8.414;2022-08-01T07:47:46;100230.22;;;23.06;54.99
56514;BME280;62152;52.078;8.414;2022-08-01T07:49:31;100224.69;;;23.06;54.80
56514;BME280;62152;52.078;8.414;2022-08-01T07:51:17;100229.03;;;23.07;54.94
56514;BME280;62152;52.078;8.414;2022-08-01T07:53:02;100227.47;;;23.06;54.81
56514;BME280;62152;52.078;8.414;2022-08-01T07:54:48;100228.25;;;23.07;54.88
56514;BME280;62152;52.078;8.414;2022-08-01T07:56:33;100227.06;;;23.08;54.91
56514;BME280;62152;52.078;8.414;2022-08-01T07:58:20;100228.25;;;23.07;54.83
56514;BME280;62152;52.078;8.414;2022-08-01T08:00:07;100227.47;;;23.06;54.84
56514;BME280;62152;52.078;8.414;2022-08-01T08:01:53;100231.38;;;23.05;54.85
56514;BME280;62152;52.078;8.414;2022-08-01T08:03:38;100226.63;;;23.06;54.85
56514;BME280;62152;52.078;8.414;2022-08-01T08:05:23;100225.84;;;23.05;54.95
56514;BME280;62152;52.078;8.414;2022-08-01T08:07:08;100233.78;;;23.07;55.04
56514;BME280;62152;52.078;8.414;2022-08-01T08:08:53;100238.53;;;23.06;54.83
56514;BME280;62152;52.078;8.414;2022-08-01T08:10:38;100234.56;;;23.07;55.00
56514;BME280;62152;52.078;8.414;2022-08-01T08:12:23;100234.56;;;23.07;55.12
56514;BME280;62152;52.078;8.414;2022-08-01T08:14:11;100232.59;;;23.08;54.71
56514;BME280;62152;52.078;8.414;2022-08-01T08:15:56;100232.59;;;23.08;54.68
56514;BME280;62152;52.078;8.414;2022-08-01T08:17:41;100236.91;;;23.09;54.86
56514;BME280;62152;52.078;8.414;2022-08-01T08:19:26;100245.63;;;23.07;54.89
56514;BME280;62152;52.078;8.414;2022-08-01T08:21:13;100238.13;;;23.08;54.67
56514;BME280;62152;52.078;8.414;2022-08-01T08:22:58;100243.66;;;23.08;54.76
56514;BME280;62152;52.078;8.414;2022-08-01T08:25:05;100246.41;;;23.08;54.71
56514;BME280;62152;52.078;8.414;2022-08-01T08:26:57;100245.63;;;23.07;55.02
56514;BME280;62152;52.078;8.414;2022-08-01T08:28:43;100254.72;;;23.08;54.84
56514;BME280;62152;52.078;8.414;2022-08-01T08:30:31;100242.84;;;23.07;54.71
56514;BME280;62152;52.078;8.414;2022-08-01T08:32:16;100243.22;;;23.06;54.61
56514;BME280;62152;52.078;8.414;2022-08-01T08:34:01;100251.13;;;23.11;54.94
56514;BME280;62152;52.078;8.414;2022-08-01T08:35:46;100250.34;;;23.10;54.86
56514;BME280;62152;52.078;8.414;2022-08-01T08:37:31;100251.53;;;23.09;54.93
56514;BME280;62152;52.078;8.414;2022-08-01T08:39:17;100251.53;;;23.09;54.56
56514;BME280;62152;52.078;8.414;2022-08-01T08:41:03;100251.94;;;23.08;55.04
56514;BME280;62152;52.078;8.414;2022-08-01T08:42:49;100257.88;;;23.10;54.81
56514;BME280;62152;52.078;8.414;2022-08-01T08:44:35;100266.16;;;23.10;54.83
56514;BME280;62152;52.078;8.414;2022-08-01T08:46:25;100263.00;;;23.11;54.57
56514;BME280;62152;52.078;8.414;2022-08-01T08:48:15;100265.38;;;23.13;54.74
56514;BME280;62152;52.078;8.414;2022-08-01T08:50:03;100268.16;;;23.13;54.74
56514;BME280;62152;52.078;8.414;2022-08-01T08:51:51;100264.97;;;23.14;54.71
56514;BME280;62152;52.078;8.414;2022-08-01T08:53:44;100259.84;;;23.13;54.52
56514;BME280;62152;52.078;8.414;2022-08-01T08:55:32;100269.31;;;23.15;54.80
56514;BME280;62152;52.078;8.414;2022-08-01T08:57:19;100266.56;;;23.15;54.83
56514;BME280;62152;52.078;8.414;2022-08-01T08:59:06;100256.69;;;23.14;54.87
56514;BME280;62152;52.078;8.414;2022-08-01T09:00:53;100263.00;;;23.15;54.83
56514;BME280;62152;52.078;8.414;2022-08-01T09:02:45;100271.69;;;23.17;54.73
56514;BME280;62152;52.078;8.414;2022-08-01T09:04:31;100268.53;;;23.15;54.84
56514;BME280;62152;52.078;8.414;2022-08-01T09:06:18;100276.41;;;23.16;54.65
56514;BME280;62152;52.078;8.414;2022-08-01T09:08:06;100274.06;;;23.15;54.69
56514;BME280;62152;52.078;8.414;2022-08-01T09:09:53;100272.47;;;23.17;54.53
56514;BME280;62152;52.078;8.414;2022-08-01T09:11:38;100273.66;;;23.16;54.62
56514;BME280;62152;52.078;8.414;2022-08-01T09:13:24;100269.69;;;23.17;54.58
56514;BME280;62152;52.078;8.414;2022-08-01T09:15:09;100274.81;;;23.19;54.65
56514;BME280;62152;52.078;8.414;2022-08-01T09:17:02;100274.03;;;23.18;54.57
56514;BME280;62152;52.078;8.414;2022-08-01T09:18:52;100281.56;;;23.18;54.58
56514;BME280;62152;52.078;8.414;2022-08-01T09:20:38;100274.03;;;23.18;54.56
56514;BME280;62152;52.078;8.414;2022-08-01T09:22:24;100279.56;;;23.18;54.49
56514;BME280;62152;52.078;8.414;2022-08-01T09:24:15;100289.84;;;23.22;54.34
56514;BME280;62152;52.078;8.414;2022-08-01T09:26:01;100285.50;;;23.17;54.53
56514;BME280;62152;52.078;8.414;2022-08-01T09:27:46;100287.88;;;23.22;54.46